createdAt,value
2023-04-25T00:01:07.166Z,94502.09
2023-04-25T00:03:36.425Z,94506.50
2023-04-25T00:06:04.530Z,94498.66
2023-04-25T00:08:33.503Z,94501.28
2023-04-25T00:11:01.529Z,94506.50
2023-04-25T00:13:29.627Z,94519.56
2023-04-25T00:15:57.443Z,94513.53
2023-04-25T00:18:25.113Z,94522.16
2023-04-25T00:20:52.820Z,94516.94
2023-04-25T00:23:20.425Z,94520.56
2023-04-25T00:25:51.440Z,94520.56
2023-04-25T00:28:19.520Z,94519.72
2023-04-25T00:30:47.130Z,94515.34
2023-04-25T00:33:14.763Z,94516.16
2023-04-25T00:35:42.489Z,94509.28
2023-04-25T00:38:10.159Z,94509.28
2023-04-25T00:40:37.813Z,94504.06
2023-04-25T00:43:06.836Z,94509.28
2023-04-25T00:45:40.457Z,94505.69
2023-04-25T00:48:08.345Z,94510.09
2023-04-25T00:50:36.494Z,94504.88
2023-04-25T00:53:04.463Z,94504.69
2023-04-25T00:55:33.350Z,94495.25
2023-04-25T00:58:01.309Z,94495.25
2023-04-25T01:00:31.177Z,94502.28
2023-04-25T01:02:58.994Z,94502.28
2023-04-25T01:05:26.655Z,94503.09
2023-04-25T01:07:54.437Z,94509.09
2023-04-25T01:10:22.032Z,94497.03
2023-04-25T01:12:49.768Z,94497.88
2023-04-25T01:15:17.427Z,94494.44
2023-04-25T01:17:46.611Z,94488.38
2023-04-25T01:20:15.995Z,94493.59
2023-04-25T01:22:45.359Z,94492.63
2023-04-25T01:25:13.778Z,94491.00
2023-04-25T01:27:42.483Z,94486.59
2023-04-25T01:30:11.106Z,94484.94
2023-04-25T01:32:40.147Z,94488.56
2023-04-25T01:37:52.887Z,94477.13
2023-04-25T01:40:22.562Z,94477.13
2023-04-25T01:42:50.570Z,94487.56
2023-04-25T01:45:19.077Z,94483.34
2023-04-25T01:47:49.963Z,94484.94
2023-04-25T01:50:18.791Z,94479.91
2023-04-25T01:52:46.651Z,94475.50
2023-04-25T01:55:15.661Z,94476.47
2023-04-25T01:57:43.386Z,94479.72
2023-04-25T02:00:12.361Z,94483.34
2023-04-25T02:02:40.292Z,94481.50
2023-04-25T02:05:09.207Z,94474.69
2023-04-25T02:07:36.835Z,94472.06
2023-04-25T02:10:04.746Z,94474.69
2023-04-25T02:12:33.959Z,94470.28
2023-04-25T02:15:01.579Z,94480.72
2023-04-25T02:17:29.239Z,94476.28
2023-04-25T02:19:56.893Z,94478.13
2023-04-25T02:22:24.462Z,94483.34
2023-04-25T02:24:52.092Z,94477.13
2023-04-25T02:27:19.665Z,94475.31
2023-04-25T02:29:48.585Z,94476.28
2023-04-25T02:32:16.183Z,94476.16
2023-04-25T02:34:43.761Z,94468.47
2023-04-25T02:37:11.314Z,94463.22
2023-04-25T02:39:38.929Z,94466.66
2023-04-25T02:42:06.589Z,94458.84
2023-04-25T02:44:34.191Z,94457.03
2023-04-25T02:47:03.247Z,94458.84
2023-04-25T02:49:30.914Z,94458.84
2023-04-25T02:51:58.533Z,94466.84
2023-04-25T02:54:26.236Z,94466.84
2023-04-25T02:56:54.106Z,94463.22
2023-04-25T02:59:21.729Z,94464.22
2023-04-25T03:01:49.728Z,94472.88
2023-04-25T03:04:20.017Z,94483.34
2023-04-25T03:06:47.677Z,94480.72
2023-04-25T03:09:15.511Z,94481.69
2023-04-25T03:11:43.205Z,94474.69
2023-04-25T03:14:10.932Z,94463.41
2023-04-25T03:16:38.830Z,94471.25
2023-04-25T03:19:06.550Z,94473.84
2023-04-25T03:21:37.174Z,94473.03
2023-04-25T03:24:06.487Z,94462.59
2023-04-25T03:26:34.109Z,94460.97
2023-04-25T03:29:01.709Z,94463.41
2023-04-25T03:31:29.383Z,94457.38
2023-04-25T03:33:57.022Z,94456.56
2023-04-25T03:36:24.586Z,94453.97
2023-04-25T03:38:53.544Z,94454.75
2023-04-25T03:41:21.207Z,94454.75
2023-04-25T03:43:49.140Z,94446.91
2023-04-25T03:46:16.933Z,94445.13
2023-04-25T03:48:44.706Z,94450.34
2023-04-25T03:51:12.269Z,94445.13
2023-04-25T03:53:39.906Z,94448.56
2023-04-25T03:56:09.080Z,94448.38
2023-04-25T03:58:36.772Z,94453.59
2023-04-25T04:01:08.334Z,94443.16
2023-04-25T04:03:36.989Z,94446.78
2023-04-25T04:06:06.576Z,94443.16
2023-04-25T04:08:34.229Z,94449.19
2023-04-25T04:11:01.905Z,94452.63
2023-04-25T04:13:31.524Z,94442.19
2023-04-25T04:15:59.585Z,94446.41
2023-04-25T04:18:27.228Z,94439.41
2023-04-25T04:20:54.904Z,94431.75
2023-04-25T04:23:23.720Z,94441.19
2023-04-25T04:25:51.471Z,94435.19
2023-04-25T04:28:19.061Z,94439.41
2023-04-25T04:30:48.095Z,94448.06
2023-04-25T04:33:16.258Z,94446.41
2023-04-25T04:35:44.021Z,94455.06
2023-04-25T04:38:12.757Z,94465.53
2023-04-25T04:40:40.374Z,94467.31
2023-04-25T04:43:09.785Z,94470.75
2023-04-25T04:45:37.532Z,94464.69
2023-04-25T04:48:07.460Z,94462.09
2023-04-25T04:50:36.563Z,94450.03
2023-04-25T04:53:04.306Z,94438.75
2023-04-25T04:55:31.957Z,94443.00
2023-04-25T04:57:59.520Z,94443.00
2023-04-25T05:00:29.526Z,94444.94
2023-04-25T05:02:57.714Z,94446.59
2023-04-25T05:05:26.961Z,94450.16
2023-04-25T05:07:54.546Z,94451.00
2023-04-25T05:10:22.349Z,94457.03
2023-04-25T05:12:49.971Z,94445.78
2023-04-25T05:15:17.808Z,94452.78
2023-04-25T05:17:45.466Z,94443.16
2023-04-25T05:20:14.986Z,94451.81
2023-04-25T05:22:43.971Z,94448.38
2023-04-25T05:25:11.669Z,94447.56
2023-04-25T05:27:39.241Z,94449.19
2023-04-25T05:30:08.067Z,94449.19
2023-04-25T05:32:35.673Z,94443.16
2023-04-25T05:35:03.774Z,94443.16
2023-04-25T05:37:32.147Z,94448.38
2023-04-25T05:40:01.265Z,94451.81
2023-04-25T05:42:28.936Z,94452.63
2023-04-25T05:44:56.536Z,94448.38
2023-04-25T05:47:24.115Z,94460.47
2023-04-25T05:49:51.720Z,94460.47
2023-04-25T05:52:19.324Z,94463.91
2023-04-25T05:54:46.936Z,94469.13
2023-04-25T05:57:22.789Z,94458.84
2023-04-25T05:59:50.367Z,94474.34
2023-04-25T06:02:18.397Z,94470.91
2023-04-25T06:04:46.332Z,94489.03
2023-04-25T06:07:14.167Z,94484.81
2023-04-25T06:09:41.727Z,94469.91
2023-04-25T06:12:09.394Z,94458.69
2023-04-25T06:14:38.563Z,94463.91
2023-04-25T06:17:09.410Z,94462.09
2023-04-25T06:19:37.858Z,94459.47
2023-04-25T06:22:05.432Z,94454.25
2023-04-25T06:24:33.137Z,94461.94
2023-04-25T06:27:00.965Z,94455.06
2023-04-25T06:29:28.588Z,94461.28
2023-04-25T06:31:58.152Z,94455.91
2023-04-25T06:34:25.760Z,94462.09
2023-04-25T06:36:53.325Z,94451.81
2023-04-25T06:39:21.119Z,94452.63
2023-04-25T06:41:48.694Z,94458.69
2023-04-25T06:44:16.337Z,94449.19
2023-04-25T06:46:44.001Z,94450.03
2023-04-25T06:49:13.125Z,94456.88
2023-04-25T06:51:41.221Z,94456.06
2023-04-25T06:54:08.899Z,94450.16
2023-04-25T06:56:36.974Z,94461.44
2023-04-25T06:59:04.565Z,94458.84
2023-04-25T07:01:32.352Z,94462.25
2023-04-25T07:04:00.437Z,94461.44
2023-04-25T07:06:29.948Z,94452.78
2023-04-25T07:08:57.621Z,94450.16
2023-04-25T07:11:25.321Z,94443.16
2023-04-25T07:13:52.918Z,94448.38
2023-04-25T07:16:20.637Z,94443.16
2023-04-25T07:18:48.545Z,94444.81
2023-04-25T07:21:16.366Z,94438.75
2023-04-25T07:23:45.322Z,94444.81
2023-04-25T07:26:13.051Z,94443.97
2023-04-25T07:28:40.758Z,94442.19
2023-04-25T07:31:08.368Z,94445.63
2023-04-25T07:33:35.980Z,94440.41
2023-04-25T07:36:03.669Z,94435.19
2023-04-25T07:38:31.238Z,94437.78
2023-04-25T07:41:00.305Z,94435.19
2023-04-25T07:43:27.913Z,94442.84
2023-04-25T07:45:55.587Z,94435.00
2023-04-25T07:48:23.398Z,94432.38
2023-04-25T07:50:51.113Z,94428.94
2023-04-25T07:53:19.841Z,94436.78
2023-04-25T07:55:47.493Z,94429.78
2023-04-25T07:58:16.593Z,94435.81
2023-04-25T08:00:44.277Z,94429.78
2023-04-25T08:03:11.987Z,94430.59
2023-04-25T08:05:40.046Z,94425.19
2023-04-25T08:08:07.771Z,94426.00
2023-04-25T08:10:35.491Z,94426.00
2023-04-25T08:13:03.561Z,94426.81
2023-04-25T08:15:32.642Z,94428.78
2023-04-25T08:18:00.748Z,94426.16
2023-04-25T08:20:28.493Z,94425.38
2023-04-25T08:22:56.121Z,94422.91
2023-04-25T08:25:23.738Z,94425.50
2023-04-25T08:27:51.522Z,94433.53
2023-04-25T08:30:19.301Z,94429.94
2023-04-25T08:32:48.449Z,94434.34
2023-04-25T08:35:17.407Z,94436.16
2023-04-25T08:37:45.003Z,94435.31
2023-04-25T08:40:16.004Z,94437.94
2023-04-25T08:42:44.489Z,94436.16
2023-04-25T08:45:12.880Z,94434.50
2023-04-25T08:47:42.417Z,94437.94
2023-04-25T08:50:11.611Z,94439.72
2023-04-25T08:52:45.662Z,94428.31
2023-04-25T08:55:14.906Z,94437.13
2023-04-25T08:57:44.147Z,94440.53
2023-04-25T09:00:13.760Z,94437.94
2023-04-25T09:02:42.180Z,94435.31
2023-04-25T09:05:12.021Z,94429.13
2023-04-25T09:07:39.641Z,94430.09
2023-04-25T09:10:07.889Z,94430.09
2023-04-25T09:12:37.522Z,94426.66
2023-04-25T09:15:07.986Z,94439.56
2023-04-25T09:17:35.701Z,94434.34
2023-04-25T09:20:14.043Z,94440.53
2023-04-25T09:22:41.747Z,94440.41
2023-04-25T09:25:13.412Z,94445.78
2023-04-25T09:27:52.509Z,94448.38
2023-04-25T09:30:20.485Z,94450.16
2023-04-25T09:32:49.187Z,94444.16
2023-04-25T09:35:27.587Z,94452.97
2023-04-25T09:37:55.824Z,94450.34
2023-04-25T09:40:23.434Z,94450.34
2023-04-25T09:42:51.469Z,94449.38
2023-04-25T09:45:19.143Z,94454.59
2023-04-25T09:47:47.110Z,94457.22
2023-04-25T09:50:20.082Z,94454.59
2023-04-25T09:53:04.630Z,94458.19
2023-04-25T09:55:33.774Z,94460.78
2023-04-25T09:58:07.129Z,94459.84
2023-04-25T10:00:35.707Z,94455.56
2023-04-25T10:03:05.500Z,94465.06
2023-04-25T10:05:36.691Z,94454.75
2023-04-25T10:08:07.491Z,94453.78
2023-04-25T10:10:37.368Z,94454.75
2023-04-25T10:13:07.286Z,94450.34
2023-04-25T10:15:39.711Z,94454.75
2023-04-25T10:18:08.722Z,94445.13
2023-04-25T10:20:36.457Z,94449.53
2023-04-25T10:23:15.938Z,94451.19
2023-04-25T10:25:44.073Z,94448.56
2023-04-25T10:28:11.858Z,94455.56
2023-04-25T10:30:39.504Z,94451.19
2023-04-25T10:33:18.540Z,94459.00
2023-04-25T10:35:47.466Z,94480.72
2023-04-25T10:38:17.284Z,94480.72
2023-04-25T10:41:05.916Z,94489.34
2023-04-25T10:43:41.448Z,94496.41
2023-04-25T10:46:19.883Z,94498.19
2023-04-25T10:48:50.085Z,94495.56
2023-04-25T10:51:20.912Z,94499.81
2023-04-25T10:53:59.876Z,94503.22
2023-04-25T10:56:31.528Z,94507.63
2023-04-25T10:59:07.669Z,94506.03
2023-04-25T11:01:39.552Z,94513.69
2023-04-25T11:04:07.512Z,94514.69
2023-04-25T11:06:46.642Z,94519.91
2023-04-25T11:09:16.100Z,94521.69
2023-04-25T11:11:43.766Z,94533.75
2023-04-25T11:14:11.480Z,94532.97
2023-04-25T11:16:39.124Z,94536.56
2023-04-25T11:19:06.730Z,94548.63
2023-04-25T11:21:34.455Z,94548.63
2023-04-25T11:24:02.442Z,94554.84
2023-04-25T11:26:32.364Z,94561.69
2023-04-25T11:29:01.282Z,94566.94
2023-04-25T11:31:28.948Z,94563.50
2023-04-25T11:33:59.375Z,94566.94
2023-04-25T11:36:27.942Z,94573.94
2023-04-25T11:38:56.095Z,94582.59
2023-04-25T11:41:24.165Z,94587.81
2023-04-25T11:43:55.531Z,94582.59
2023-04-25T11:46:23.944Z,94586.00
2023-04-25T11:48:52.328Z,94589.63
2023-04-25T11:51:20.499Z,94580.00
2023-04-25T11:53:48.092Z,94584.38
2023-04-25T11:56:16.102Z,94587.97
2023-04-25T11:58:58.933Z,94587.81
2023-04-25T12:01:32.880Z,94587.97
2023-04-25T12:04:13.557Z,94587.97
2023-04-25T12:06:42.483Z,94583.56
2023-04-25T12:09:11.867Z,94587.81
2023-04-25T12:11:46.149Z,94603.50
2023-04-25T12:14:23.764Z,94595.66
2023-04-25T12:16:52.221Z,94595.47
2023-04-25T12:19:22.283Z,94597.28
2023-04-25T12:21:57.966Z,94596.31
2023-04-25T12:24:28.735Z,94584.06
2023-04-25T12:27:02.361Z,94592.69
2023-04-25T12:29:41.932Z,94596.13
2023-04-25T12:32:16.751Z,94591.91
2023-04-25T12:34:44.581Z,94590.91
2023-04-25T12:37:12.355Z,94596.13
2023-04-25T12:39:40.070Z,94590.91
2023-04-25T12:42:09.591Z,94599.56
2023-04-25T12:44:39.091Z,94589.13
2023-04-25T12:47:07.034Z,94596.97
2023-04-25T12:49:34.934Z,94596.13
2023-04-25T12:52:02.480Z,94599.56
2023-04-25T12:54:30.223Z,94613.59
2023-04-25T12:56:58.288Z,94610.97
2023-04-25T12:59:25.890Z,94613.59
2023-04-25T13:01:54.831Z,94607.59
2023-04-25T13:04:22.980Z,94614.59
2023-04-25T13:06:50.639Z,94610.97
2023-04-25T13:09:18.346Z,94620.63
2023-04-25T13:11:46.951Z,94624.03
2023-04-25T13:14:14.599Z,94617.22
2023-04-25T13:16:42.269Z,94622.44
2023-04-25T13:19:12.472Z,94618.81
2023-04-25T13:21:40.194Z,94627.47
2023-04-25T13:24:08.463Z,94625.88
2023-04-25T13:26:36.649Z,94631.88
2023-04-25T13:29:04.994Z,94636.97
2023-04-25T13:31:33.541Z,94631.09
2023-04-25T13:34:01.156Z,94630.09
2023-04-25T13:36:30.265Z,94633.69
2023-04-25T13:38:57.846Z,94645.94
2023-04-25T13:41:25.535Z,94649.38
2023-04-25T13:43:53.427Z,94654.59
2023-04-25T13:46:40.767Z,94649.38
2023-04-25T13:49:12.731Z,94658.81
2023-04-25T13:51:43.154Z,94663.22
2023-04-25T13:54:10.960Z,94658.00
2023-04-25T13:56:38.578Z,94658.00
2023-04-25T13:59:06.156Z,94670.09
2023-04-25T14:01:35.312Z,94669.28
2023-04-25T14:04:04.736Z,94670.94
2023-04-25T14:06:33.443Z,94681.38
2023-04-25T14:09:02.574Z,94676.94
2023-04-25T14:11:30.538Z,94676.94
2023-04-25T14:13:58.154Z,94682.16
2023-04-25T14:16:25.999Z,94683.00
2023-04-25T14:18:53.816Z,94684.63
2023-04-25T14:21:21.888Z,94683.81
2023-04-25T14:23:49.815Z,94680.19
2023-04-25T14:26:18.947Z,94677.75
2023-04-25T14:28:46.588Z,94681.19
2023-04-25T14:31:14.159Z,94681.19
2023-04-25T14:33:43.778Z,94684.63
2023-04-25T14:36:12.040Z,94675.97
2023-04-25T14:38:39.815Z,94680.19
2023-04-25T14:41:07.715Z,94686.44
2023-04-25T14:43:37.332Z,94687.25
2023-04-25T14:46:05.240Z,94700.31
2023-04-25T14:48:33.033Z,94694.25
2023-04-25T14:51:01.627Z,94700.31
2023-04-25T14:53:29.569Z,94695.88
2023-04-25T14:55:57.514Z,94697.69
2023-04-25T14:58:25.318Z,94702.94
2023-04-25T15:00:54.379Z,94700.31
2023-04-25T15:03:22.137Z,94708.94
2023-04-25T15:05:49.911Z,94702.94
2023-04-25T15:08:17.506Z,94701.09
2023-04-25T15:10:46.292Z,94705.53
2023-04-25T15:13:14.031Z,94702.75
2023-04-25T15:15:42.137Z,94716.78
2023-04-25T15:18:11.179Z,94714.16
2023-04-25T15:20:38.820Z,94716.78
2023-04-25T15:23:07.059Z,94712.56
2023-04-25T15:25:34.632Z,94719.41
2023-04-25T15:28:02.224Z,94722.81
2023-04-25T15:30:29.880Z,94720.22
2023-04-25T15:32:57.545Z,94720.22
2023-04-25T15:35:26.788Z,94726.25
2023-04-25T15:37:54.601Z,94729.84
2023-04-25T15:40:22.426Z,94727.22
2023-04-25T15:42:51.915Z,94738.38
2023-04-25T15:45:20.507Z,94739.31
2023-04-25T15:47:48.368Z,94735.75
2023-04-25T15:50:16.303Z,94733.28
2023-04-25T15:52:45.865Z,94740.97
2023-04-25T15:55:14.156Z,94750.59
2023-04-25T15:57:42.399Z,94747.16
2023-04-25T16:00:13.094Z,94749.78
2023-04-25T16:02:42.475Z,94755.19
2023-04-25T16:05:11.448Z,94751.56
2023-04-25T16:07:40.881Z,94757.78
2023-04-25T16:10:12.052Z,94751.56
2023-04-25T16:12:40.053Z,94756.13
2023-04-25T16:15:08.590Z,94757.78
2023-04-25T16:17:36.334Z,94759.56
2023-04-25T16:20:09.645Z,94763.97
2023-04-25T16:22:37.427Z,94764.81
2023-04-25T16:25:05.898Z,94767.41
2023-04-25T16:27:35.569Z,94763.16
2023-04-25T16:30:03.289Z,94776.22
2023-04-25T16:32:30.939Z,94776.22
2023-04-25T16:34:59.104Z,94760.53
2023-04-25T16:37:27.404Z,94767.59
2023-04-25T16:39:55.031Z,94773.78
2023-04-25T16:42:22.655Z,94771.16
2023-04-25T16:44:51.630Z,94774.59
2023-04-25T16:47:20.562Z,94773.78
2023-04-25T16:49:48.319Z,94767.59
2023-04-25T16:52:16.124Z,94774.59
2023-04-25T16:54:43.972Z,94777.22
2023-04-25T16:57:11.928Z,94781.59
2023-04-25T16:59:39.664Z,94788.63
2023-04-25T17:02:13.312Z,94783.25
2023-04-25T17:04:41.101Z,94793.72
2023-04-25T17:07:09.072Z,94790.28
2023-04-25T17:09:36.783Z,94785.88
2023-04-25T17:12:04.645Z,94788.47
2023-04-25T17:14:35.317Z,94788.31
2023-04-25T17:17:03.673Z,94792.88
2023-04-25T17:19:32.820Z,94794.50
2023-04-25T17:22:00.488Z,94806.78
2023-04-25T17:24:28.222Z,94802.34
2023-04-25T17:26:56.506Z,94796.31
2023-04-25T17:29:24.662Z,94798.94
2023-04-25T17:31:53.544Z,94802.34
2023-04-25T17:34:21.484Z,94818.84
2023-04-25T17:36:50.552Z,94815.41
2023-04-25T17:39:18.298Z,94821.44
2023-04-25T17:41:46.019Z,94825.84
2023-04-25T17:44:13.644Z,94836.31
2023-04-25T17:46:41.465Z,94833.84
2023-04-25T17:49:09.244Z,94835.66
2023-04-25T17:51:37.114Z,94839.09
2023-04-25T17:54:06.701Z,94839.91
2023-04-25T17:56:36.527Z,94835.66
2023-04-25T17:59:04.586Z,94850.53
2023-04-25T18:01:32.193Z,94846.91
2023-04-25T18:04:00.148Z,94843.47
2023-04-25T18:06:29.335Z,94852.97
2023-04-25T18:08:57.199Z,94857.38
2023-04-25T18:11:26.504Z,94843.47
2023-04-25T18:13:54.096Z,94853.94
2023-04-25T18:16:22.022Z,94859.16
2023-04-25T18:18:53.457Z,94870.59
2023-04-25T18:21:21.572Z,94874.84
2023-04-25T18:23:49.283Z,94875.81
2023-04-25T18:26:16.884Z,94890.50
2023-04-25T18:28:45.813Z,94894.78
2023-04-25T18:31:13.928Z,94904.41
2023-04-25T18:33:41.719Z,94907.00
2023-04-25T18:36:09.371Z,94910.44
2023-04-25T18:38:36.957Z,94910.63
2023-04-25T18:41:18.150Z,94923.50
2023-04-25T18:43:54.294Z,94926.13
2023-04-25T18:46:23.268Z,94920.91
2023-04-25T18:48:53.349Z,94936.56
2023-04-25T18:51:22.760Z,94940.81
2023-04-25T18:53:50.740Z,94932.97
2023-04-25T18:56:20.970Z,94940.81
2023-04-25T18:58:48.707Z,94933.78
2023-04-25T19:01:18.318Z,94943.41
2023-04-25T19:03:46.321Z,94945.06
2023-04-25T19:06:14.021Z,94933.78
2023-04-25T19:08:41.599Z,94943.28
2023-04-25T19:11:20.665Z,94953.72
2023-04-25T19:13:49.031Z,94948.50
2023-04-25T19:16:19.615Z,94954.53
2023-04-25T19:18:48.332Z,94954.53
2023-04-25T19:21:16.261Z,94957.97
2023-04-25T19:23:43.897Z,94962.38
2023-04-25T19:26:11.485Z,94964.03
2023-04-25T19:28:39.132Z,94970.19
2023-04-25T19:31:07.229Z,94966.63
2023-04-25T19:33:36.435Z,94967.59
2023-04-25T19:36:04.360Z,94964.97
2023-04-25T19:38:32.272Z,94965.81
2023-04-25T19:40:59.949Z,94965.81
2023-04-25T19:43:27.625Z,94971.84
2023-04-25T19:45:55.469Z,94969.25
2023-04-25T19:48:23.603Z,94969.25
2023-04-25T19:50:52.578Z,94966.63
2023-04-25T19:53:20.152Z,94961.56
2023-04-25T19:55:47.844Z,94961.41
2023-04-25T19:58:16.553Z,94957.13
2023-04-25T20:00:44.136Z,94964.03
2023-04-25T20:03:12.126Z,94951.91
2023-04-25T20:05:39.915Z,94959.75
2023-04-25T20:08:09.061Z,94966.63
2023-04-25T20:10:36.815Z,94955.34
2023-04-25T20:13:05.451Z,94957.97
2023-04-25T20:15:33.129Z,94958.97
2023-04-25T20:18:00.933Z,94952.75
2023-04-25T20:20:28.601Z,94951.91
2023-04-25T20:22:56.337Z,94957.97
2023-04-25T20:25:25.397Z,94956.34
2023-04-25T20:27:53.042Z,94958.97
2023-04-25T20:30:21.434Z,94960.56
2023-04-25T20:32:49.928Z,94964.84
2023-04-25T20:35:17.709Z,94975.28
2023-04-25T20:37:46.412Z,94977.91
2023-04-25T20:40:14.232Z,94981.34
2023-04-25T20:42:43.250Z,94983.97
2023-04-25T20:45:13.347Z,94980.53
2023-04-25T20:47:41.422Z,94982.97
2023-04-25T20:50:10.964Z,94973.50
2023-04-25T20:52:38.611Z,94977.91
2023-04-25T20:55:07.387Z,94976.91
2023-04-25T20:57:34.988Z,94971.69
2023-04-25T21:00:13.197Z,94975.28
2023-04-25T21:02:40.982Z,94977.91
2023-04-25T21:05:09.310Z,94979.69
2023-04-25T21:07:36.892Z,94981.47
2023-04-25T21:10:05.264Z,94977.09
2023-04-25T21:12:32.974Z,94982.47
2023-04-25T21:15:01.034Z,94988.50
2023-04-25T21:17:30.051Z,94988.50
2023-04-25T21:19:57.669Z,94995.53
2023-04-25T21:22:25.677Z,94992.91
2023-04-25T21:24:54.249Z,94992.91
2023-04-25T21:27:21.832Z,94992.09
2023-04-25T21:29:49.456Z,94992.09
2023-04-25T21:32:20.765Z,94981.66
2023-04-25T21:34:49.754Z,94980.00
2023-04-25T21:37:17.350Z,94983.44
2023-04-25T21:39:47.856Z,94980.00
2023-04-25T21:42:15.557Z,94985.22
2023-04-25T21:44:43.147Z,94988.81
2023-04-25T21:47:10.750Z,94990.44
2023-04-25T21:49:38.375Z,94997.31
2023-04-25T21:52:07.405Z,94978.22
2023-04-25T21:54:36.442Z,94978.22
2023-04-25T21:57:04.212Z,94972.16
2023-04-25T21:59:32.867Z,94966.94
2023-04-25T22:02:00.502Z,94977.38
2023-04-25T22:04:28.451Z,94981.81
2023-04-25T22:06:56.903Z,94985.22
2023-04-25T22:09:25.951Z,94983.44
2023-04-25T22:11:54.006Z,94992.91
2023-04-25T22:14:22.038Z,95001.56
2023-04-25T22:16:50.252Z,95004.16
2023-04-25T22:19:17.854Z,95001.56
2023-04-25T22:21:45.423Z,95008.59
2023-04-25T22:24:13.575Z,95012.84
2023-04-25T22:26:42.803Z,95018.06
2023-04-25T22:29:10.604Z,95013.00
2023-04-25T22:31:38.212Z,95013.81
2023-04-25T22:34:05.869Z,95018.22
2023-04-25T22:36:33.983Z,95009.56
2023-04-25T22:39:01.610Z,95015.63
2023-04-25T22:41:29.203Z,95012.16
2023-04-25T22:43:58.092Z,95022.63
2023-04-25T22:46:25.766Z,95016.56
2023-04-25T22:48:53.593Z,95015.78
2023-04-25T22:51:21.382Z,95017.41
2023-04-25T22:53:49.576Z,95016.72
2023-04-25T22:56:17.365Z,95014.94
2023-04-25T22:58:44.993Z,95020.19
2023-04-25T23:01:13.994Z,95019.34
2023-04-25T23:03:41.803Z,95019.34
2023-04-25T23:06:09.565Z,95021.97
2023-04-25T23:08:37.242Z,95026.34
2023-04-25T23:11:07.758Z,95015.91
2023-04-25T23:13:36.592Z,95028.00
2023-04-25T23:16:07.315Z,95025.41
2023-04-25T23:18:36.642Z,95020.34
2023-04-25T23:21:04.896Z,95025.56
2023-04-25T23:23:32.780Z,95020.34
2023-04-25T23:26:00.456Z,95023.75
2023-04-25T23:28:28.034Z,95026.34
2023-04-25T23:30:55.862Z,95015.13
2023-04-25T23:33:23.457Z,95012.50
2023-04-25T23:35:52.373Z,95016.91
2023-04-25T23:38:20.842Z,95022.94
2023-04-25T23:40:48.422Z,95020.34
2023-04-25T23:43:16.404Z,95032.56
2023-04-25T23:45:46.176Z,95030.78
2023-04-25T23:48:14.019Z,95030.91
2023-04-25T23:50:41.604Z,95033.41
2023-04-25T23:53:10.881Z,95039.41
2023-04-25T23:55:38.510Z,95034.19
2023-04-25T23:58:06.185Z,95042.03
